Time;durP1;ratioP1;P1;durP2;ratioP2;P2;SDS_P1;SDS_P2;PMS_P1;PMS_P2;Temp;Humidity;BMP_temperature;BMP_pressure;BME280_temperature;BME280_humidity;BME280_pressure;Samples;Min_cycle;Max_cycle;Signal;HPM_P1;HPM_P2
2023/05/13 00:01:55;;;;;;;14.10;7.20;;;28.30;95.20;;;;;;5043499;28;20029;-44
2023/05/13 00:04:21;;;;;;;18.00;7.32;;;28.30;95.10;;;;;;5043110;28;20021;-49
2023/05/13 00:06:48;;;;;;;18.70;6.90;;;28.20;95.20;;;;;;5043944;28;20294;-42
2023/05/13 00:09:14;;;;;;;18.98;7.35;;;28.20;95.30;;;;;;5044004;28;20079;-43
2023/05/13 00:11:41;;;;;;;29.77;11.98;;;28.10;95.30;;;;;;5051512;28;20032;-44
2023/05/13 00:14:09;;;;;;;31.02;14.70;;;28.00;95.30;;;;;;5055697;28;20041;-43
2023/05/13 00:16:36;;;;;;;27.60;12.90;;;28.00;95.30;;;;;;5059443;28;20025;-49
2023/05/13 00:19:02;;;;;;;19.02;8.60;;;28.00;95.40;;;;;;5061562;28;20139;-50
2023/05/13 00:21:30;;;;;;;18.88;7.97;;;27.90;95.30;;;;;;5052333;28;20373;-47
2023/05/13 00:23:58;;;;;;;18.38;7.85;;;27.90;95.30;;;;;;5044339;28;20036;-50
2023/05/13 00:26:25;;;;;;;21.05;7.47;;;27.90;95.20;;;;;;5046475;28;20321;-51
2023/05/13 00:28:51;;;;;;;17.48;6.95;;;27.80;95.00;;;;;;5059465;28;20194;-42
2023/05/13 00:31:18;;;;;;;20.10;7.93;;;27.80;95.10;;;;;;5063420;28;20035;-41
2023/05/13 00:33:45;;;;;;;24.38;11.65;;;27.80;95.30;;;;;;5057410;28;20037;-41
2023/05/13 00:36:12;;;;;;;24.80;9.45;;;27.70;95.30;;;;;;5046310;28;20025;-47
2023/05/13 00:38:38;;;;;;;18.10;7.05;;;27.70;95.20;;;;;;5055905;28;20102;-48
2023/05/13 00:41:05;;;;;;;17.83;7.15;;;27.70;95.20;;;;;;5047245;28;20196;-42
2023/05/13 00:43:32;;;;;;;16.90;7.07;;;27.60;95.00;;;;;;5055543;28;20033;-41
2023/05/13 00:45:59;;;;;;;32.42;12.88;;;27.60;95.00;;;;;;5063257;28;20051;-43
2023/05/13 00:48:26;;;;;;;30.45;10.63;;;27.60;95.30;;;;;;5063450;28;20028;-47
2023/05/13 00:50:53;;;;;;;25.65;9.77;;;27.60;95.30;;;;;;5063534;28;20214;-46
2023/05/13 00:53:20;;;;;;;20.15;8.95;;;27.70;95.20;;;;;;5063558;28;20105;-43
2023/05/13 00:55:46;;;;;;;19.55;8.25;;;27.80;95.30;;;;;;5054723;28;20022;-46
2023/05/13 00:58:13;;;;;;;20.25;7.78;;;27.90;95.70;;;;;;5051201;28;20120;-47
2023/05/13 01:01:01;;;;;;;13.77;5.80;;;28.00;95.50;;;;;;5043349;28;20025;-46
2023/05/13 01:04:09;;;;;;;13.68;6.47;;;28.10;95.70;;;;;;5046063;28;20025;-43
2023/05/13 01:06:50;;;;;;;18.52;6.53;;;28.10;95.70;;;;;;5061657;28;20021;-48
2023/05/13 01:09:44;;;;;;;16.98;7.10;;;27.90;95.60;;;;;;5066725;28;20044;-44
2023/05/13 01:12:20;;;;;;;17.10;7.18;;;27.90;95.70;;;;;;5058234;28;20040;-43
2023/05/13 01:14:59;;;;;;;18.83;7.10;;;27.90;95.70;;;;;;5051712;28;20033;-42
2023/05/13 01:17:56;;;;;;;16.13;7.55;;;27.90;95.50;;;;;;5046728;28;20036;-43
2023/05/13 01:20:23;;;;;;;20.70;6.63;;;27.80;95.50;;;;;;5053323;28;20960;-49
2023/05/13 01:22:50;;;;;;;17.42;5.95;;;27.90;95.40;;;;;;5054042;28;20049;-52
2023/05/13 01:25:16;;;;;;;18.60;5.90;;;27.90;95.30;;;;;;5046055;28;20194;-41
2023/05/13 01:27:44;;;;;;;20.13;8.35;;;27.70;95.30;;;;;;5046746;28;20025;-44
2023/05/13 01:30:12;;;;;;;11.40;5.88;;;27.60;95.70;;;;;;5046297;28;20034;-43
2023/05/13 01:32:39;;;;;;;16.17;7.75;;;27.60;95.90;;;;;;5050013;28;20157;-43
2023/05/13 01:35:08;;;;;;;16.05;7.07;;;27.60;95.70;;;;;;5060234;28;20021;-46
2023/05/13 01:37:36;;;;;;;16.17;7.05;;;27.50;95.80;;;;;;5057355;28;20079;-43
2023/05/13 01:40:04;;;;;;;14.18;6.20;;;27.40;95.90;;;;;;5056422;28;20249;-43
2023/05/13 01:42:33;;;;;;;16.75;6.30;;;27.40;96.00;;;;;;5050072;28;20082;-42
2023/05/13 01:45:01;;;;;;;15.18;6.05;;;27.40;96.30;;;;;;5046101;28;20352;-47
2023/05/13 01:47:28;;;;;;;13.55;5.85;;;27.30;96.20;;;;;;5046031;28;20053;-43
2023/05/13 01:49:55;;;;;;;11.32;4.88;;;27.30;96.20;;;;;;5057222;28;20090;-43
2023/05/13 01:52:21;;;;;;;15.85;5.00;;;27.20;96.00;;;;;;5046315;28;20088;-43
2023/05/13 01:54:48;;;;;;;9.55;4.57;;;27.20;96.20;;;;;;5045572;28;20071;-43
2023/05/13 01:57:15;;;;;;;12.98;5.55;;;27.20;96.10;;;;;;5045773;28;20021;-45
2023/05/13 01:59:41;;;;;;;14.80;5.80;;;27.20;96.20;;;;;;5053620;28;20024;-52
2023/05/13 02:02:08;;;;;;;10.88;5.45;;;27.10;96.30;;;;;;5058592;28;20162;-43
2023/05/13 02:04:35;;;;;;;12.45;5.20;;;27.10;96.30;;;;;;5056284;28;20012;-45
2023/05/13 02:07:01;;;;;;;11.90;4.90;;;27.10;96.40;;;;;;5065751;28;20040;-43
2023/05/13 02:09:28;;;;;;;9.90;4.70;;;27.10;96.60;;;;;;5056186;28;20028;-44
2023/05/13 02:11:55;;;;;;;13.05;5.38;;;27.10;96.50;;;;;;5045559;28;20025;-43
2023/05/13 02:14:21;;;;;;;10.88;5.15;;;27.00;96.40;;;;;;5045627;28;20056;-41
2023/05/13 02:16:49;;;;;;;16.38;5.32;;;27.00;96.50;;;;;;5045315;28;20021;-44
2023/05/13 02:19:16;;;;;;;11.43;5.03;;;26.90;96.60;;;;;;5045427;28;20036;-42
2023/05/13 02:21:43;;;;;;;13.88;5.68;;;26.90;96.70;;;;;;5048771;28;20085;-43
2023/05/13 02:24:09;;;;;;;13.55;5.03;;;27.10;96.70;;;;;;5053049;28;20033;-45
2023/05/13 02:26:37;;;;;;;13.80;5.07;;;27.20;96.20;;;;;;5045614;28;20036;-44
2023/05/13 02:29:03;;;;;;;13.93;5.10;;;27.40;95.80;;;;;;5045798;28;20077;-45
2023/05/13 02:31:30;;;;;;;24.02;6.13;;;27.50;95.60;;;;;;5045136;28;20060;-49
2023/05/13 02:33:57;;;;;;;23.63;6.00;;;27.60;95.30;;;;;;5045648;28;20045;-47
2023/05/13 02:36:23;;;;;;;23.10;5.90;;;27.70;95.20;;;;;;5048217;28;20025;-47
2023/05/13 02:38:50;;;;;;;23.02;5.72;;;27.70;94.90;;;;;;5047045;28;20040;-54
2023/05/13 02:41:17;;;;;;;15.30;4.82;;;27.70;94.80;;;;;;5052165;28;20325;-44
2023/05/13 02:43:43;;;;;;;13.63;4.47;;;27.80;94.60;;;;;;5054620;28;20029;-43
2023/05/13 02:46:10;;;;;;;13.68;5.03;;;27.80;94.30;;;;;;5053586;28;20355;-48
2023/05/13 02:48:37;;;;;;;12.18;4.65;;;27.90;94.30;;;;;;5054280;28;20088;-45
2023/05/13 02:51:03;;;;;;;14.80;4.93;;;27.90;94.10;;;;;;5055243;28;20033;-43
2023/05/13 02:53:30;;;;;;;13.57;5.00;;;27.90;94.10;;;;;;5053586;28;20104;-50
2023/05/13 02:55:58;;;;;;;14.40;5.05;;;27.90;93.90;;;;;;5054340;28;20108;-44
2023/05/13 02:58:24;;;;;;;17.70;5.90;;;28.00;93.90;;;;;;5054973;28;20072;-48
2023/05/13 03:00:51;;;;;;;11.85;5.13;;;28.00;93.90;;;;;;5048394;28;20101;-48
2023/05/13 03:03:17;;;;;;;14.98;4.70;;;28.00;93.70;;;;;;5053252;28;20032;-44
2023/05/13 03:05:45;;;;;;;16.85;4.88;;;28.00;93.70;;;;;;5054180;28;20013;-57
2023/05/13 03:08:11;;;;;;;12.48;4.50;;;28.00;93.60;;;;;;5049447;28;20038;-55
2023/05/13 03:10:38;;;;;;;13.10;4.95;;;28.00;93.50;;;;;;5059203;28;20018;-58
2023/05/13 03:13:05;;;;;;;11.82;4.88;;;28.00;93.40;;;;;;5064693;28;20081;-65
2023/05/13 03:15:31;;;;;;;22.27;5.25;;;28.10;93.40;;;;;;5064384;28;20337;-56
2023/05/13 03:17:58;;;;;;;13.55;4.65;;;28.10;93.40;;;;;;5064456;28;20031;-56
2023/05/13 03:20:24;;;;;;;15.38;5.30;;;28.10;93.40;;;;;;5064263;28;20029;-57
2023/05/13 03:22:51;;;;;;;14.38;4.65;;;28.10;93.30;;;;;;5062227;28;20084;-60
2023/05/13 03:25:18;;;;;;;13.82;4.97;;;28.10;93.10;;;;;;5043945;28;20209;-60
2023/05/13 03:27:44;;;;;;;14.32;4.57;;;28.10;92.90;;;;;;5063992;28;20048;-60
2023/05/13 03:30:11;;;;;;;9.50;4.60;;;28.10;92.90;;;;;;5062880;28;20028;-60
2023/05/13 03:32:38;;;;;;;11.88;4.60;;;28.10;92.80;;;;;;5062209;28;20041;-59
2023/05/13 03:35:05;;;;;;;10.60;4.80;;;28.10;92.90;;;;;;5062175;28;20052;-56
2023/05/13 03:37:32;;;;;;;10.85;4.25;;;28.10;92.80;;;;;;5062227;28;20029;-59
2023/05/13 03:39:58;;;;;;;11.73;4.10;;;27.70;92.90;;;;;;5053781;28;20083;-63
2023/05/13 03:42:25;;;;;;;13.45;4.30;;;27.70;93.30;;;;;;5042477;28;20022;-55
2023/05/13 03:44:51;;;;;;;14.18;4.43;;;27.70;93.10;;;;;;5042346;28;20033;-57
2023/05/13 03:47:18;;;;;;;13.15;4.45;;;27.80;92.90;;;;;;5053438;28;20028;-57
2023/05/13 03:49:46;;;;;;;11.38;4.40;;;27.90;92.80;;;;;;5057242;28;20052;-53
2023/05/13 03:52:13;;;;;;;9.25;3.45;;;27.90;92.60;;;;;;5043853;28;20036;-55
2023/05/13 03:54:40;;;;;;;12.30;4.20;;;27.90;92.50;;;;;;5043781;28;20014;-58
2023/05/13 03:57:07;;;;;;;15.27;4.40;;;27.90;92.40;;;;;;5043974;28;20063;-53
2023/05/13 03:59:34;;;;;;;10.88;4.30;;;28.00;92.40;;;;;;5043680;28;20065;-56
2023/05/13 04:02:01;;;;;;;13.50;3.83;;;28.00;92.50;;;;;;5042605;28;20257;-54
2023/05/13 04:04:27;;;;;;;8.90;4.20;;;28.00;92.40;;;;;;5047964;28;20034;-56
2023/05/13 04:06:54;;;;;;;14.68;4.30;;;28.00;92.50;;;;;;5052530;28;20235;-58
2023/05/13 04:09:21;;;;;;;10.98;3.80;;;28.00;92.50;;;;;;5043829;28;20034;-57
2023/05/13 04:11:48;;;;;;;11.60;3.90;;;28.00;92.60;;;;;;5044112;28;20028;-54
2023/05/13 04:14:14;;;;;;;11.32;4.35;;;28.00;92.60;;;;;;5063738;28;20186;-56
2023/05/13 04:16:41;;;;;;;11.35;4.30;;;28.00;92.50;;;;;;5063659;28;20036;-56
2023/05/13 04:19:08;;;;;;;14.38;4.18;;;27.90;92.60;;;;;;5057627;28;20039;-53
2023/05/13 04:21:34;;;;;;;11.88;4.05;;;27.90;92.50;;;;;;5052405;28;20226;-61
2023/05/13 04:24:01;;;;;;;9.65;4.25;;;27.90;92.60;;;;;;5064067;28;20067;-59
2023/05/13 04:26:27;;;;;;;16.40;5.38;;;27.90;92.60;;;;;;5063465;28;20021;-57
2023/05/13 04:28:54;;;;;;;16.52;5.47;;;27.90;92.60;;;;;;5063966;28;20037;-54
2023/05/13 04:31:21;;;;;;;14.35;5.38;;;27.90;92.60;;;;;;5063495;28;20016;-58
2023/05/13 04:33:47;;;;;;;14.25;5.85;;;27.90;92.70;;;;;;5062390;28;20041;-63
2023/05/13 04:36:14;;;;;;;15.88;6.40;;;27.90;92.70;;;;;;5063463;28;20080;-66
2023/05/13 04:38:41;;;;;;;13.40;5.72;;;27.90;92.80;;;;;;5063210;28;20055;-58
2023/05/13 04:41:07;;;;;;;17.65;6.30;;;27.80;93.10;;;;;;5054331;28;20033;-57
2023/05/13 04:43:34;;;;;;;15.43;6.53;;;27.80;92.90;;;;;;5065579;28;20036;-58
2023/05/13 04:46:01;;;;;;;17.33;6.47;;;27.80;92.90;;;;;;5067378;28;20039;-54
2023/05/13 04:48:27;;;;;;;15.65;6.78;;;27.80;92.90;;;;;;5067425;28;20036;-53
2023/05/13 04:50:55;;;;;;;20.75;7.07;;;27.80;93.00;;;;;;5067338;28;20032;-55
2023/05/13 04:53:21;;;;;;;14.82;7.07;;;27.70;93.10;;;;;;5067085;28;20029;-58
2023/05/13 04:55:59;;;;;;;17.15;7.40;;;27.70;93.10;;;;;;5065486;28;20360;-56
2023/05/13 04:58:26;;;;;;;17.83;8.07;;;27.70;93.00;;;;;;5046976;28;20068;-57
2023/05/13 05:00:54;;;;;;;15.88;7.07;;;27.70;93.10;;;;;;5050603;28;20013;-55
2023/05/13 05:03:21;;;;;;;16.27;6.82;;;27.70;93.10;;;;;;5067159;28;20037;-55
2023/05/13 05:05:48;;;;;;;17.13;6.10;;;27.70;93.20;;;;;;5066999;28;20309;-55
2023/05/13 05:08:15;;;;;;;12.57;5.65;;;27.70;93.30;;;;;;5067196;28;20040;-58
2023/05/13 05:10:42;;;;;;;13.02;4.95;;;27.70;93.40;;;;;;5066674;28;20055;-61
2023/05/13 05:13:09;;;;;;;12.25;4.70;;;27.60;93.30;;;;;;5067035;28;20071;-59
2023/05/13 05:15:36;;;;;;;12.43;4.82;;;27.60;93.40;;;;;;5066657;28;20036;-58
2023/05/13 05:18:05;;;;;;;10.98;4.20;;;27.60;93.40;;;;;;5066710;28;20025;-59
2023/05/13 05:20:31;;;;;;;11.45;4.15;;;27.60;93.30;;;;;;5065476;28;20218;-58
2023/05/13 05:22:58;;;;;;;10.48;4.35;;;27.60;93.30;;;;;;5062480;28;20219;-57
2023/05/13 05:25:25;;;;;;;11.10;3.97;;;27.60;93.30;;;;;;5046397;28;20021;-56
2023/05/13 05:27:52;;;;;;;12.07;4.05;;;27.50;93.30;;;;;;5046702;28;20083;-55
2023/05/13 05:30:18;;;;;;;12.25;3.83;;;27.60;93.40;;;;;;5046481;28;20044;-57
2023/05/13 05:32:45;;;;;;;12.25;4.07;;;27.50;93.50;;;;;;5046378;28;20075;-58
2023/05/13 05:35:12;;;;;;;9.90;4.18;;;27.60;93.60;;;;;;5046309;28;20044;-60
2023/05/13 05:37:38;;;;;;;15.40;4.07;;;27.50;93.60;;;;;;5049895;28;20025;-57
2023/05/13 05:40:06;;;;;;;12.18;4.32;;;27.50;93.70;;;;;;5066112;28;20040;-55
2023/05/13 05:42:33;;;;;;;13.75;3.80;;;27.50;93.90;;;;;;5065134;28;20103;-56
2023/05/13 05:45:00;;;;;;;11.02;3.92;;;27.40;93.90;;;;;;5065059;28;20063;-56
2023/05/13 05:47:26;;;;;;;12.00;4.53;;;27.40;94.20;;;;;;5066086;28;20256;-57
2023/05/13 05:49:53;;;;;;;14.45;4.43;;;27.40;94.00;;;;;;5066001;28;20017;-59
2023/05/13 05:52:19;;;;;;;13.63;4.35;;;27.40;94.20;;;;;;5065744;28;20098;-58
2023/05/13 05:54:46;;;;;;;16.20;4.75;;;27.40;93.90;;;;;;5065807;28;20012;-56
2023/05/13 05:57:12;;;;;;;11.52;3.88;;;27.30;94.00;;;;;;5066040;28;20067;-55
2023/05/13 05:59:39;;;;;;;9.82;4.45;;;27.30;94.00;;;;;;5065771;28;20028;-58
2023/05/13 06:02:06;;;;;;;10.07;4.47;;;27.40;94.00;;;;;;5065759;28;20013;-59
2023/05/13 06:04:32;;;;;;;8.93;4.20;;;27.30;93.80;;;;;;5065994;28;20036;-57
2023/05/13 06:06:59;;;;;;;11.60;4.40;;;27.30;93.80;;;;;;5065723;28;20084;-58
2023/05/13 06:09:26;;;;;;;14.75;4.53;;;27.30;93.80;;;;;;5065648;28;20024;-55
2023/05/13 06:11:52;;;;;;;12.60;3.72;;;27.30;93.70;;;;;;5065583;28;20036;-60
2023/05/13 06:14:19;;;;;;;12.20;4.32;;;27.30;93.80;;;;;;5065594;28;20021;-58
2023/05/13 06:16:46;;;;;;;11.65;4.18;;;27.30;93.50;;;;;;5065446;28;20032;-61
2023/05/13 06:19:12;;;;;;;13.07;4.00;;;27.30;93.50;;;;;;5065474;28;20036;-58
2023/05/13 06:21:41;;;;;;;14.13;4.25;;;27.30;93.60;;;;;;5065547;28;20045;-57
2023/05/13 06:24:09;;;;;;;12.27;3.67;;;27.30;93.60;;;;;;5065196;28;20033;-56
2023/05/13 06:26:36;;;;;;;12.85;4.07;;;27.30;93.60;;;;;;5065413;28;20016;-59
2023/05/13 06:29:02;;;;;;;12.15;3.97;;;27.20;93.70;;;;;;5049398;28;20061;-56
2023/05/13 06:31:29;;;;;;;12.95;4.15;;;27.30;93.80;;;;;;5045077;28;20025;-60
2023/05/13 06:33:56;;;;;;;10.07;4.10;;;27.20;93.90;;;;;;5045650;28;20036;-61
2023/05/13 06:36:22;;;;;;;9.50;3.90;;;27.20;94.00;;;;;;5045279;28;20321;-64
2023/05/13 06:38:49;;;;;;;7.82;3.72;;;27.20;93.90;;;;;;5045317;28;20084;-61
2023/05/13 06:41:16;;;;;;;10.60;4.57;;;27.20;93.90;;;;;;5044965;28;20025;-57
2023/05/13 06:43:44;;;;;;;16.08;3.90;;;27.20;93.80;;;;;;5045469;28;20028;-56
2023/05/13 06:46:11;;;;;;;10.88;4.50;;;27.20;93.70;;;;;;5044966;28;20093;-63
2023/05/13 06:48:38;;;;;;;10.40;4.22;;;27.20;93.60;;;;;;5045369;28;20045;-63
2023/05/13 06:51:05;;;;;;;9.38;3.80;;;27.20;93.50;;;;;;5044679;28;20234;-62
2023/05/13 06:53:32;;;;;;;9.65;3.90;;;27.20;93.30;;;;;;5045004;28;20037;-62
2023/05/13 06:55:58;;;;;;;10.55;3.83;;;27.20;93.20;;;;;;5044662;28;20024;-60
2023/05/13 06:58:25;;;;;;;9.82;4.10;;;27.30;93.30;;;;;;5044680;28;20045;-57
2023/05/13 07:00:51;;;;;;;8.00;3.97;;;27.30;93.30;;;;;;5044583;28;20025;-58
2023/05/13 07:03:18;;;;;;;7.93;3.97;;;27.20;93.10;;;;;;5044112;28;20024;-61
2023/05/13 07:05:45;;;;;;;11.57;3.97;;;27.20;93.00;;;;;;5044643;28;20033;-60
2023/05/13 07:08:16;;;;;;;10.93;4.20;;;27.20;92.90;;;;;;5044366;28;20029;-59
2023/05/13 07:10:43;;;;;;;9.80;3.72;;;27.20;92.90;;;;;;5044459;28;20021;-61
2023/05/13 07:13:25;;;;;;;8.75;3.88;;;27.20;92.90;;;;;;5044805;28;20108;-60
2023/05/13 07:15:52;;;;;;;13.45;3.85;;;27.20;92.90;;;;;;5044186;28;20248;-58
2023/05/13 07:18:19;;;;;;;7.97;3.97;;;27.30;92.90;;;;;;5044605;28;20100;-61
2023/05/13 07:20:45;;;;;;;9.07;4.13;;;27.30;92.70;;;;;;5044096;28;20041;-59
2023/05/13 07:23:12;;;;;;;10.57;3.75;;;27.20;92.80;;;;;;5044502;28;20030;-60
2023/05/13 07:25:39;;;;;;;16.02;4.68;;;27.20;92.70;;;;;;5044284;28;20033;-62
2023/05/13 07:28:05;;;;;;;10.45;4.07;;;27.30;92.80;;;;;;5044382;28;20032;-60
2023/05/13 07:30:32;;;;;;;11.02;4.50;;;27.30;92.80;;;;;;5050715;28;20029;-57
2023/05/13 07:32:59;;;;;;;14.10;4.68;;;27.30;92.80;;;;;;5051333;28;20041;-58
2023/05/13 07:35:25;;;;;;;13.00;3.80;;;27.20;92.80;;;;;;5044114;28;20087;-60
2023/05/13 07:37:52;;;;;;;11.93;3.92;;;27.30;92.70;;;;;;5044114;28;20518;-60
2023/05/13 07:40:19;;;;;;;12.57;4.35;;;27.30;92.70;;;;;;5044109;28;20029;-59
2023/05/13 07:42:46;;;;;;;13.13;4.68;;;27.30;92.80;;;;;;5044086;28;20025;-57
2023/05/13 07:45:12;;;;;;;10.23;4.20;;;27.30;92.80;;;;;;5043897;28;20044;-58
2023/05/13 07:47:39;;;;;;;10.75;4.03;;;27.30;92.80;;;;;;5044129;28;20037;-60
2023/05/13 07:50:06;;;;;;;9.88;3.67;;;27.30;92.80;;;;;;5043931;28;20037;-62
2023/05/13 07:52:33;;;;;;;12.05;4.10;;;27.30;92.90;;;;;;5043788;28;20025;-63
2023/05/13 07:55:00;;;;;;;9.32;3.75;;;27.30;93.00;;;;;;5043940;28;20034;-62
2023/05/13 07:57:27;;;;;;;15.60;4.30;;;27.30;93.00;;;;;;5043693;28;20088;-58
2023/05/13 07:59:53;;;;;;;12.88;4.40;;;27.30;93.10;;;;;;5043683;28;20094;-61
2023/05/13 08:02:20;;;;;;;10.13;3.95;;;27.20;93.20;;;;;;5044054;28;20092;-60
2023/05/13 08:04:47;;;;;;;10.93;3.80;;;27.30;93.40;;;;;;5043665;28;20016;-63
2023/05/13 08:07:14;;;;;;;11.23;4.07;;;27.20;93.50;;;;;;5043772;28;20186;-63
2023/05/13 08:09:40;;;;;;;10.82;4.40;;;27.20;93.60;;;;;;5043815;28;20041;-59
2023/05/13 08:12:07;;;;;;;11.13;4.10;;;27.20;93.60;;;;;;5043767;28;21515;-62
2023/05/13 08:14:34;;;;;;;11.63;4.28;;;27.20;93.60;;;;;;5044991;28;20025;-57
2023/05/13 08:17:03;;;;;;;14.30;4.25;;;27.20;93.70;;;;;;5047782;28;20043;-59
2023/05/13 08:19:29;;;;;;;12.38;4.13;;;27.20;93.80;;;;;;5047643;28;20092;-63
2023/05/13 08:21:56;;;;;;;15.57;4.32;;;27.20;93.90;;;;;;5047703;28;20013;-60
2023/05/13 08:24:23;;;;;;;12.85;4.57;;;27.20;94.00;;;;;;5051870;28;20029;-60
2023/05/13 08:26:50;;;;;;;10.13;4.30;;;27.20;94.00;;;;;;5061608;28;20039;-58
2023/05/13 08:29:16;;;;;;;13.07;4.70;;;27.20;94.00;;;;;;5067459;28;20021;-58
2023/05/13 08:31:43;;;;;;;13.48;4.25;;;27.20;94.10;;;;;;5067340;28;20095;-61
2023/05/13 08:34:09;;;;;;;13.82;4.63;;;27.20;94.10;;;;;;5067967;28;20052;-57
2023/05/13 08:36:36;;;;;;;9.05;3.92;;;27.20;94.10;;;;;;5067379;28;20331;-56
2023/05/13 08:39:03;;;;;;;12.27;4.20;;;27.10;94.00;;;;;;5067686;28;20104;-60
2023/05/13 08:41:33;;;;;;;10.32;4.35;;;27.10;94.10;;;;;;5067350;28;20017;-62
2023/05/13 08:44:03;;;;;;;13.40;4.43;;;27.10;94.30;;;;;;5067591;28;20019;-57
2023/05/13 08:46:33;;;;;;;13.30;4.13;;;27.10;94.30;;;;;;5067119;28;20043;-56
2023/05/13 08:49:01;;;;;;;10.18;4.35;;;27.00;94.40;;;;;;5067554;28;20096;-56
2023/05/13 08:51:28;;;;;;;9.05;3.88;;;27.10;94.50;;;;;;5066752;28;20033;-60
2023/05/13 08:53:55;;;;;;;10.90;4.38;;;27.10;94.50;;;;;;5066848;28;20052;-60
2023/05/13 08:56:24;;;;;;;12.48;4.10;;;27.10;94.60;;;;;;5067004;28;20024;-58
2023/05/13 08:58:51;;;;;;;12.35;3.75;;;27.10;94.60;;;;;;5066393;28;20049;-58
2023/05/13 09:01:17;;;;;;;9.48;3.83;;;27.00;94.60;;;;;;5066755;28;20040;-57
2023/05/13 09:03:56;;;;;;;10.25;4.70;;;27.10;94.60;;;;;;5067143;28;20047;-58
2023/05/13 09:06:22;;;;;;;11.82;3.95;;;27.10;94.60;;;;;;5066568;28;20376;-58
2023/05/13 09:08:49;;;;;;;12.15;3.85;;;27.00;94.60;;;;;;5067256;28;20064;-57
2023/05/13 09:11:16;;;;;;;18.60;4.50;;;27.10;94.70;;;;;;5066785;28;20028;-55
2023/05/13 09:13:43;;;;;;;10.60;4.28;;;27.10;94.80;;;;;;5066762;28;20037;-57
2023/05/13 09:16:13;;;;;;;11.80;3.97;;;27.10;94.80;;;;;;5066703;28;20071;-60
2023/05/13 09:18:41;;;;;;;12.88;4.40;;;27.10;94.90;;;;;;5066903;28;20017;-58
2023/05/13 09:21:28;;;;;;;10.80;4.15;;;27.00;94.90;;;;;;5066181;28;20036;-61
2023/05/13 09:24:09;;;;;;;13.50;4.32;;;27.00;94.90;;;;;;5066988;28;20040;-59
2023/05/13 09:26:36;;;;;;;10.63;4.10;;;27.00;95.00;;;;;;5065627;28;20086;-60
2023/05/13 09:29:25;;;;;;;13.73;4.20;;;27.00;95.10;;;;;;5066803;28;20037;-64
2023/05/13 09:31:53;;;;;;;11.07;4.28;;;27.00;95.10;;;;;;5066276;28;20031;-61
2023/05/13 09:34:30;;;;;;;13.27;4.22;;;27.00;95.10;;;;;;5066336;28;20025;-55
2023/05/13 09:37:07;;;;;;;11.75;4.40;;;27.00;95.20;;;;;;5066002;28;20039;-58
2023/05/13 09:39:40;;;;;;;14.95;4.00;;;27.00;95.20;;;;;;5066204;28;20051;-60
2023/05/13 09:42:17;;;;;;;10.40;4.13;;;27.00;95.20;;;;;;5065918;28;20371;-55
2023/05/13 09:44:45;;;;;;;10.48;4.03;;;27.00;95.30;;;;;;5066125;28;20029;-57
2023/05/13 09:47:14;;;;;;;12.27;4.18;;;26.90;95.30;;;;;;5066220;28;20321;-59
2023/05/13 09:49:41;;;;;;;9.70;4.00;;;26.90;95.40;;;;;;5066142;28;20032;-57
2023/05/13 09:52:11;;;;;;;8.80;3.67;;;26.90;95.30;;;;;;5066017;28;20044;-57
2023/05/13 09:54:38;;;;;;;10.98;4.00;;;27.00;95.30;;;;;;5065929;28;20084;-57
2023/05/13 09:57:06;;;;;;;12.15;4.20;;;27.00;95.30;;;;;;5065804;28;20020;-57
2023/05/13 09:59:35;;;;;;;11.07;4.13;;;27.00;95.10;;;;;;5065596;28;20052;-55
2023/05/13 10:02:06;;;;;;;15.73;4.10;;;27.00;95.10;;;;;;5065731;28;20080;-58
2023/05/13 10:04:34;;;;;;;12.35;4.47;;;27.00;95.20;;;;;;5065634;28;20020;-55
2023/05/13 10:07:03;;;;;;;10.57;3.60;;;26.90;95.20;;;;;;5065700;28;20025;-58
2023/05/13 10:09:35;;;;;;;9.48;3.90;;;27.00;95.20;;;;;;5065649;28;20031;-57
2023/05/13 10:12:05;;;;;;;11.50;4.10;;;27.00;95.20;;;;;;5065538;28;20198;-57
2023/05/13 10:14:33;;;;;;;13.00;4.30;;;26.90;95.20;;;;;;5065618;28;20335;-60
2023/05/13 10:17:01;;;;;;;9.00;3.58;;;27.00;95.20;;;;;;5066031;28;20036;-61
2023/05/13 10:19:28;;;;;;;10.00;4.28;;;26.90;95.10;;;;;;5065258;28;20051;-60
2023/05/13 10:21:56;;;;;;;10.98;4.50;;;27.00;95.10;;;;;;5065402;28;20335;-58
2023/05/13 10:24:23;;;;;;;10.93;4.43;;;26.90;95.10;;;;;;5065429;28;20056;-57
2023/05/13 10:26:52;;;;;;;12.50;3.90;;;26.90;95.10;;;;;;5065182;28;20080;-55
2023/05/13 10:29:21;;;;;;;15.43;4.15;;;26.90;94.90;;;;;;5065278;28;20028;-58
2023/05/13 10:31:49;;;;;;;9.48;3.85;;;27.00;94.90;;;;;;5065134;28;20045;-59
2023/05/13 10:34:17;;;;;;;10.57;4.30;;;27.00;94.90;;;;;;5065003;28;20025;-57
2023/05/13 10:37:01;;;;;;;13.38;4.70;;;27.00;94.90;;;;;;5065007;28;20349;-59
2023/05/13 10:40:12;;;;;;;15.77;4.40;;;26.90;95.00;;;;;;5064317;28;20036;-59
2023/05/13 10:42:41;;;;;;;11.23;4.15;;;27.00;95.00;;;;;;5064381;28;20090;-61
2023/05/13 10:45:09;;;;;;;13.50;4.20;;;27.00;94.90;;;;;;5064912;28;20029;-58
2023/05/13 10:47:36;;;;;;;18.15;4.40;;;27.00;95.00;;;;;;5065334;28;20099;-58
2023/05/13 10:50:28;;;;;;;11.25;4.18;;;27.00;95.20;;;;;;5065079;28;20035;-45
2023/05/13 10:52:58;;;;;;;15.45;4.07;;;26.90;95.30;;;;;;5064938;28;20303;-44
2023/05/13 10:55:27;;;;;;;12.48;4.22;;;26.90;95.40;;;;;;5064836;28;20088;-47
2023/05/13 10:58:10;;;;;;;13.98;4.65;;;26.80;95.50;;;;;;5064427;28;20051;-45
2023/05/13 11:00:41;;;;;;;10.95;4.20;;;26.90;95.70;;;;;;5064758;28;20055;-45
2023/05/13 11:03:29;;;;;;;13.52;4.72;;;26.80;95.70;;;;;;5064791;28;20096;-47
2023/05/13 11:06:02;;;;;;;14.82;4.85;;;26.70;95.80;;;;;;5064615;28;20071;-44
2023/05/13 11:08:42;;;;;;;16.10;5.00;;;26.70;96.10;;;;;;5064785;28;20075;-45
2023/05/13 11:11:22;;;;;;;12.35;5.00;;;26.70;96.30;;;;;;5064536;28;20032;-44
2023/05/13 11:14:13;;;;;;;11.60;4.60;;;26.60;96.40;;;;;;5064812;28;20324;-45
2023/05/13 11:17:03;;;;;;;10.85;4.35;;;26.60;96.50;;;;;;5064444;28;20037;-46
2023/05/13 11:19:50;;;;;;;10.35;4.38;;;26.50;96.50;;;;;;5064531;28;20040;-45
2023/05/13 11:22:25;;;;;;;10.00;4.20;;;26.40;96.40;;;;;;5064370;28;20208;-45
2023/05/13 11:25:08;;;;;;;9.80;5.00;;;26.30;96.50;;;;;;5064360;28;20364;-45
2023/05/13 11:27:43;;;;;;;10.05;4.70;;;26.30;96.60;;;;;;5064304;28;20206;-49
2023/05/13 11:30:22;;;;;;;9.20;4.78;;;26.30;96.70;;;;;;5064492;28;20370;-45
2023/05/13 11:32:55;;;;;;;8.50;3.85;;;26.30;96.80;;;;;;5064317;28;20041;-44
2023/05/13 11:35:25;;;;;;;11.00;4.25;;;26.40;96.90;;;;;;5064493;28;20305;-52
2023/05/13 11:37:53;;;;;;;9.15;4.55;;;26.40;97.00;;;;;;5064079;28;20048;-44
2023/05/13 11:40:24;;;;;;;8.13;3.83;;;26.40;97.00;;;;;;5064033;28;20021;-46
2023/05/13 11:42:52;;;;;;;9.60;4.18;;;26.40;96.90;;;;;;5064178;28;20033;-50
2023/05/13 11:45:20;;;;;;;11.90;5.00;;;26.50;96.80;;;;;;5063916;28;20017;-51
2023/05/13 11:47:46;;;;;;;14.73;4.57;;;26.50;96.70;;;;;;5064147;28;20078;-44
2023/05/13 11:50:29;;;;;;;11.27;4.40;;;26.50;96.60;;;;;;5063590;28;20075;-44
2023/05/13 11:52:58;;;;;;;8.55;4.40;;;26.50;96.60;;;;;;5064084;28;20320;-43
2023/05/13 11:55:30;;;;;;;8.05;3.97;;;26.50;96.40;;;;;;5049788;28;20045;-43
2023/05/13 11:57:57;;;;;;;10.13;3.90;;;26.40;96.50;;;;;;5043670;28;20214;-49
2023/05/13 12:00:28;;;;;;;6.78;4.13;;;26.50;96.20;;;;;;5044042;28;20049;-45
2023/05/13 12:02:56;;;;;;;7.13;3.38;;;26.50;96.10;;;;;;5044182;28;20025;-44
2023/05/13 12:05:24;;;;;;;8.68;4.28;;;26.50;95.90;;;;;;5043660;28;20033;-46
2023/05/13 12:07:51;;;;;;;8.13;4.03;;;26.50;95.90;;;;;;5043643;28;20026;-47
2023/05/13 12:10:18;;;;;;;9.73;3.92;;;26.60;95.90;;;;;;5043773;28;20033;-51
2023/05/13 12:12:45;;;;;;;12.95;6.20;;;26.60;95.80;;;;;;5043836;28;20044;-45
2023/05/13 12:15:16;;;;;;;10.68;5.00;;;26.60;95.90;;;;;;5043712;28;20033;-51
2023/05/13 12:17:43;;;;;;;10.55;4.70;;;26.70;95.80;;;;;;5043754;28;20021;-51
2023/05/13 12:20:14;;;;;;;12.93;4.78;;;26.60;95.60;;;;;;5043910;28;20030;-44
2023/05/13 12:22:44;;;;;;;11.32;4.20;;;26.70;95.50;;;;;;5043629;28;20091;-52
2023/05/13 12:25:36;;;;;;;6.22;3.78;;;26.70;95.30;;;;;;5044512;28;20087;-52
2023/05/13 12:28:09;;;;;;;8.68;3.88;;;26.70;95.10;;;;;;5063771;28;20033;-46
2023/05/13 12:30:41;;;;;;;10.13;3.97;;;26.60;95.00;;;;;;5050081;28;20030;-43
2023/05/13 12:33:15;;;;;;;9.80;3.88;;;26.70;94.90;;;;;;5063767;28;20036;-46
2023/05/13 12:35:43;;;;;;;5.60;3.40;;;26.80;94.90;;;;;;5063343;28;20273;-56
2023/05/13 12:38:15;;;;;;;9.68;3.65;;;26.80;94.80;;;;;;5063600;28;20079;-48
2023/05/13 12:40:41;;;;;;;;;;;26.80;94.70;;;;;;5063595;28;20049;-46
2023/05/13 12:43:10;;;;;;;6.68;3.30;;;26.80;94.70;;;;;;5063537;28;19909;-47
2023/05/13 12:45:38;;;;;;;6.97;3.15;;;26.80;94.60;;;;;;5063312;28;20102;-49
2023/05/13 12:48:04;;;;;;;8.30;3.25;;;26.90;94.60;;;;;;5063568;28;20029;-48